sensor_id;sensor_type;location;lat;lon;timestamp;P1;durP1;ratioP1;P2;durP2;ratioP2
36411;SDS011;22445;52.100;5.176;2023-04-06T00:01:38;21.38;;;11.02;;
36411;SDS011;22445;52.100;5.176;2023-04-06T00:04:04;22.67;;;10.32;;
36411;SDS011;22445;52.100;5.176;2023-04-06T00:06:31;20.05;;;10.05;;
36411;SDS011;22445;52.100;5.176;2023-04-06T00:08:57;20.27;;;9.55;;
36411;SDS011;22445;52.100;5.176;2023-04-06T00:11:22;16.17;;;10.30;;
36411;SDS011;22445;52.100;5.176;2023-04-06T00:13:48;17.55;;;10.90;;
36411;SDS011;22445;52.100;5.176;2023-04-06T00:16:14;21.90;;;10.90;;
36411;SDS011;22445;52.100;5.176;2023-04-06T00:18:39;22.20;;;10.13;;
36411;SDS011;22445;52.100;5.176;2023-04-06T00:21:05;16.60;;;10.13;;
36411;SDS011;22445;52.100;5.176;2023-04-06T00:23:31;16.02;;;9.50;;
36411;SDS011;22445;52.100;5.176;2023-04-06T00:25:56;15.15;;;9.90;;
36411;SDS011;22445;52.100;5.176;2023-04-06T00:28:22;16.98;;;10.07;;
36411;SDS011;22445;52.100;5.176;2023-04-06T00:30:53;15.90;;;10.30;;
36411;SDS011;22445;52.100;5.176;2023-04-06T00:33:20;17.45;;;10.60;;
36411;SDS011;22445;52.100;5.176;2023-04-06T00:35:47;18.85;;;10.23;;
36411;SDS011;22445;52.100;5.176;2023-04-06T00:38:13;16.67;;;10.52;;
36411;SDS011;22445;52.100;5.176;2023-04-06T00:40:39;15.90;;;10.05;;
36411;SDS011;22445;52.100;5.176;2023-04-06T00:43:05;18.33;;;11.65;;
36411;SDS011;22445;52.100;5.176;2023-04-06T00:45:31;16.73;;;10.02;;
36411;SDS011;22445;52.100;5.176;2023-04-06T00:47:58;16.80;;;10.63;;
36411;SDS011;22445;52.100;5.176;2023-04-06T00:50:24;16.65;;;9.82;;
36411;SDS011;22445;52.100;5.176;2023-04-06T00:52:49;17.85;;;10.30;;
36411;SDS011;22445;52.100;5.176;2023-04-06T00:55:16;16.13;;;9.93;;
36411;SDS011;22445;52.100;5.176;2023-04-06T00:57:42;16.92;;;9.95;;
36411;SDS011;22445;52.100;5.176;2023-04-06T01:00:08;16.52;;;9.77;;
36411;SDS011;22445;52.100;5.176;2023-04-06T01:02:38;15.30;;;9.93;;
36411;SDS011;22445;52.100;5.176;2023-04-06T01:05:04;14.23;;;9.40;;
36411;SDS011;22445;52.100;5.176;2023-04-06T01:07:29;14.68;;;9.60;;
36411;SDS011;22445;52.100;5.176;2023-04-06T01:09:55;18.45;;;8.57;;
36411;SDS011;22445;52.100;5.176;2023-04-06T01:12:21;16.08;;;8.93;;
36411;SDS011;22445;52.100;5.176;2023-04-06T01:14:46;12.60;;;7.97;;
36411;SDS011;22445;52.100;5.176;2023-04-06T01:17:12;14.10;;;8.25;;
36411;SDS011;22445;52.100;5.176;2023-04-06T01:19:38;13.45;;;7.95;;
36411;SDS011;22445;52.100;5.176;2023-04-06T01:22:05;14.25;;;7.85;;
36411;SDS011;22445;52.100;5.176;2023-04-06T01:24:31;11.75;;;8.52;;
36411;SDS011;22445;52.100;5.176;2023-04-06T01:26:56;15.02;;;8.77;;
36411;SDS011;22445;52.100;5.176;2023-04-06T01:29:22;14.05;;;7.97;;
36411;SDS011;22445;52.100;5.176;2023-04-06T01:31:48;13.50;;;8.32;;
36411;SDS011;22445;52.100;5.176;2023-04-06T01:34:13;14.63;;;8.32;;
36411;SDS011;22445;52.100;5.176;2023-04-06T01:36:39;12.55;;;8.07;;
36411;SDS011;22445;52.100;5.176;2023-04-06T01:39:05;12.18;;;7.80;;
36411;SDS011;22445;52.100;5.176;2023-04-06T01:41:30;11.07;;;7.47;;
36411;SDS011;22445;52.100;5.176;2023-04-06T01:43:56;11.20;;;6.97;;
36411;SDS011;22445;52.100;5.176;2023-04-06T01:46:22;13.15;;;7.88;;
36411;SDS011;22445;52.100;5.176;2023-04-06T01:48:47;11.10;;;7.35;;
36411;SDS011;22445;52.100;5.176;2023-04-06T01:51:13;14.40;;;8.20;;
36411;SDS011;22445;52.100;5.176;2023-04-06T01:53:39;12.45;;;7.82;;
36411;SDS011;22445;52.100;5.176;2023-04-06T01:56:05;12.90;;;6.85;;
36411;SDS011;22445;52.100;5.176;2023-04-06T01:58:31;12.85;;;7.05;;
36411;SDS011;22445;52.100;5.176;2023-04-06T02:00:56;14.48;;;8.77;;
36411;SDS011;22445;52.100;5.176;2023-04-06T02:03:22;12.25;;;8.55;;
36411;SDS011;22445;52.100;5.176;2023-04-06T02:05:47;11.82;;;8.63;;
36411;SDS011;22445;52.100;5.176;2023-04-06T02:08:13;12.48;;;8.45;;
36411;SDS011;22445;52.100;5.176;2023-04-06T02:10:39;12.15;;;7.78;;
36411;SDS011;22445;52.100;5.176;2023-04-06T02:13:04;12.10;;;7.32;;
36411;SDS011;22445;52.100;5.176;2023-04-06T02:15:30;11.93;;;7.10;;
36411;SDS011;22445;52.100;5.176;2023-04-06T02:17:56;12.50;;;7.85;;
36411;SDS011;22445;52.100;5.176;2023-04-06T02:20:22;10.52;;;6.82;;
36411;SDS011;22445;52.100;5.176;2023-04-06T02:22:48;14.07;;;7.80;;
36411;SDS011;22445;52.100;5.176;2023-04-06T02:25:14;17.48;;;7.57;;
36411;SDS011;22445;52.100;5.176;2023-04-06T02:27:39;10.77;;;7.00;;
36411;SDS011;22445;52.100;5.176;2023-04-06T02:30:05;11.85;;;7.80;;
36411;SDS011;22445;52.100;5.176;2023-04-06T02:32:31;13.82;;;7.88;;
36411;SDS011;22445;52.100;5.176;2023-04-06T02:34:56;11.43;;;7.47;;
36411;SDS011;22445;52.100;5.176;2023-04-06T02:37:22;13.98;;;8.18;;
36411;SDS011;22445;52.100;5.176;2023-04-06T02:39:49;10.10;;;6.93;;
36411;SDS011;22445;52.100;5.176;2023-04-06T02:42:15;11.27;;;7.00;;
36411;SDS011;22445;52.100;5.176;2023-04-06T02:44:41;9.82;;;6.55;;
36411;SDS011;22445;52.100;5.176;2023-04-06T02:47:07;11.10;;;7.75;;
36411;SDS011;22445;52.100;5.176;2023-04-06T02:49:32;11.07;;;6.53;;
36411;SDS011;22445;52.100;5.176;2023-04-06T02:51:58;12.93;;;7.50;;
36411;SDS011;22445;52.100;5.176;2023-04-06T02:54:23;11.65;;;7.22;;
36411;SDS011;22445;52.100;5.176;2023-04-06T02:56:49;10.50;;;6.75;;
36411;SDS011;22445;52.100;5.176;2023-04-06T02:59:15;11.15;;;7.28;;
36411;SDS011;22445;52.100;5.176;2023-04-06T03:01:40;12.57;;;7.28;;
36411;SDS011;22445;52.100;5.176;2023-04-06T03:04:06;11.63;;;7.38;;
36411;SDS011;22445;52.100;5.176;2023-04-06T03:06:31;9.25;;;6.45;;
36411;SDS011;22445;52.100;5.176;2023-04-06T03:08:57;11.00;;;7.10;;
36411;SDS011;22445;52.100;5.176;2023-04-06T03:11:23;12.60;;;7.50;;
36411;SDS011;22445;52.100;5.176;2023-04-06T03:13:48;12.15;;;8.20;;
36411;SDS011;22445;52.100;5.176;2023-04-06T03:16:14;14.20;;;8.00;;
36411;SDS011;22445;52.100;5.176;2023-04-06T03:18:40;13.55;;;7.53;;
36411;SDS011;22445;52.100;5.176;2023-04-06T03:21:05;10.82;;;6.90;;
36411;SDS011;22445;52.100;5.176;2023-04-06T03:23:31;10.82;;;7.45;;
36411;SDS011;22445;52.100;5.176;2023-04-06T03:25:56;11.57;;;7.32;;
36411;SDS011;22445;52.100;5.176;2023-04-06T03:28:22;12.25;;;7.63;;
36411;SDS011;22445;52.100;5.176;2023-04-06T03:30:48;11.63;;;7.07;;
36411;SDS011;22445;52.100;5.176;2023-04-06T03:33:14;13.90;;;8.07;;
36411;SDS011;22445;52.100;5.176;2023-04-06T03:35:39;11.15;;;7.57;;
36411;SDS011;22445;52.100;5.176;2023-04-06T03:38:05;13.07;;;7.60;;
36411;SDS011;22445;52.100;5.176;2023-04-06T03:40:31;13.70;;;8.25;;
36411;SDS011;22445;52.100;5.176;2023-04-06T03:42:57;13.23;;;7.55;;
36411;SDS011;22445;52.100;5.176;2023-04-06T03:45:22;11.02;;;7.28;;
36411;SDS011;22445;52.100;5.176;2023-04-06T03:47:48;12.93;;;8.50;;
36411;SDS011;22445;52.100;5.176;2023-04-06T03:50:14;13.43;;;8.38;;
36411;SDS011;22445;52.100;5.176;2023-04-06T03:52:39;13.50;;;7.88;;
36411;SDS011;22445;52.100;5.176;2023-04-06T03:55:05;16.63;;;8.68;;
36411;SDS011;22445;52.100;5.176;2023-04-06T03:57:31;12.38;;;7.95;;
36411;SDS011;22445;52.100;5.176;2023-04-06T03:59:57;11.77;;;7.85;;
36411;SDS011;22445;52.100;5.176;2023-04-06T04:02:23;14.25;;;8.73;;
36411;SDS011;22445;52.100;5.176;2023-04-06T04:04:48;15.75;;;8.70;;
36411;SDS011;22445;52.100;5.176;2023-04-06T04:07:14;14.95;;;7.85;;
36411;SDS011;22445;52.100;5.176;2023-04-06T04:09:39;13.35;;;7.80;;
36411;SDS011;22445;52.100;5.176;2023-04-06T04:12:05;17.17;;;8.85;;
36411;SDS011;22445;52.100;5.176;2023-04-06T04:14:31;14.68;;;9.38;;
36411;SDS011;22445;52.100;5.176;2023-04-06T04:16:56;14.02;;;8.70;;
36411;SDS011;22445;52.100;5.176;2023-04-06T04:19:22;13.40;;;8.57;;
36411;SDS011;22445;52.100;5.176;2023-04-06T04:21:47;15.85;;;9.13;;
36411;SDS011;22445;52.100;5.176;2023-04-06T04:24:13;12.73;;;8.50;;
36411;SDS011;22445;52.100;5.176;2023-04-06T04:26:39;14.43;;;8.77;;
36411;SDS011;22445;52.100;5.176;2023-04-06T04:29:05;14.57;;;8.82;;
36411;SDS011;22445;52.100;5.176;2023-04-06T04:31:31;11.45;;;7.95;;
36411;SDS011;22445;52.100;5.176;2023-04-06T04:33:57;15.18;;;8.90;;
36411;SDS011;22445;52.100;5.176;2023-04-06T04:36:23;16.58;;;8.27;;
36411;SDS011;22445;52.100;5.176;2023-04-06T04:38:50;14.32;;;8.52;;
36411;SDS011;22445;52.100;5.176;2023-04-06T04:41:16;19.52;;;10.18;;
36411;SDS011;22445;52.100;5.176;2023-04-06T04:43:42;13.18;;;9.13;;
36411;SDS011;22445;52.100;5.176;2023-04-06T04:46:07;16.13;;;10.88;;
36411;SDS011;22445;52.100;5.176;2023-04-06T04:48:33;15.20;;;9.10;;
36411;SDS011;22445;52.100;5.176;2023-04-06T04:50:59;15.15;;;9.90;;
36411;SDS011;22445;52.100;5.176;2023-04-06T04:53:24;15.57;;;9.73;;
36411;SDS011;22445;52.100;5.176;2023-04-06T04:55:50;15.27;;;10.45;;
36411;SDS011;22445;52.100;5.176;2023-04-06T04:58:16;17.60;;;9.95;;
36411;SDS011;22445;52.100;5.176;2023-04-06T05:00:43;17.83;;;9.68;;
36411;SDS011;22445;52.100;5.176;2023-04-06T05:03:09;16.55;;;9.30;;
36411;SDS011;22445;52.100;5.176;2023-04-06T05:05:39;13.05;;;8.90;;
36411;SDS011;22445;52.100;5.176;2023-04-06T05:08:05;15.00;;;10.60;;
36411;SDS011;22445;52.100;5.176;2023-04-06T05:10:30;17.80;;;10.52;;
36411;SDS011;22445;52.100;5.176;2023-04-06T05:12:56;16.70;;;10.00;;
36411;SDS011;22445;52.100;5.176;2023-04-06T05:15:22;18.20;;;10.82;;
36411;SDS011;22445;52.100;5.176;2023-04-06T05:17:47;15.55;;;9.80;;
36411;SDS011;22445;52.100;5.176;2023-04-06T05:20:13;19.00;;;11.25;;
36411;SDS011;22445;52.100;5.176;2023-04-06T05:22:39;16.75;;;10.45;;
36411;SDS011;22445;52.100;5.176;2023-04-06T05:25:04;16.10;;;9.80;;
36411;SDS011;22445;52.100;5.176;2023-04-06T05:27:30;16.38;;;9.60;;
36411;SDS011;22445;52.100;5.176;2023-04-06T05:29:56;16.35;;;10.95;;
36411;SDS011;22445;52.100;5.176;2023-04-06T05:32:21;18.63;;;11.68;;
36411;SDS011;22445;52.100;5.176;2023-04-06T05:34:48;15.63;;;9.63;;
36411;SDS011;22445;52.100;5.176;2023-04-06T05:37:15;17.63;;;10.52;;
36411;SDS011;22445;52.100;5.176;2023-04-06T05:39:41;18.15;;;11.48;;
36411;SDS011;22445;52.100;5.176;2023-04-06T05:42:07;15.93;;;10.60;;
36411;SDS011;22445;52.100;5.176;2023-04-06T05:44:32;19.33;;;10.98;;
36411;SDS011;22445;52.100;5.176;2023-04-06T05:46:58;19.48;;;10.07;;
36411;SDS011;22445;52.100;5.176;2023-04-06T05:49:23;18.65;;;11.98;;
36411;SDS011;22445;52.100;5.176;2023-04-06T05:51:49;17.08;;;10.60;;
36411;SDS011;22445;52.100;5.176;2023-04-06T05:54:15;18.90;;;10.82;;
36411;SDS011;22445;52.100;5.176;2023-04-06T05:56:40;17.20;;;10.35;;
36411;SDS011;22445;52.100;5.176;2023-04-06T05:59:06;17.15;;;11.23;;
36411;SDS011;22445;52.100;5.176;2023-04-06T06:01:32;18.02;;;11.65;;
36411;SDS011;22445;52.100;5.176;2023-04-06T06:03:58;19.88;;;12.10;;
36411;SDS011;22445;52.100;5.176;2023-04-06T06:06:25;19.25;;;12.55;;
36411;SDS011;22445;52.100;5.176;2023-04-06T06:08:52;16.80;;;11.52;;
36411;SDS011;22445;52.100;5.176;2023-04-06T06:11:18;16.60;;;11.40;;
36411;SDS011;22445;52.100;5.176;2023-04-06T06:13:43;22.17;;;12.10;;
36411;SDS011;22445;52.100;5.176;2023-04-06T06:16:09;20.50;;;12.63;;
36411;SDS011;22445;52.100;5.176;2023-04-06T06:18:34;19.20;;;12.98;;
36411;SDS011;22445;52.100;5.176;2023-04-06T06:21:01;17.17;;;12.32;;
36411;SDS011;22445;52.100;5.176;2023-04-06T06:23:27;17.27;;;10.98;;
36411;SDS011;22445;52.100;5.176;2023-04-06T06:25:53;20.20;;;12.35;;
36411;SDS011;22445;52.100;5.176;2023-04-06T06:28:19;17.00;;;12.00;;
36411;SDS011;22445;52.100;5.176;2023-04-06T06:30:44;18.35;;;11.88;;
36411;SDS011;22445;52.100;5.176;2023-04-06T06:33:10;20.77;;;12.93;;
36411;SDS011;22445;52.100;5.176;2023-04-06T06:35:36;18.63;;;11.77;;
36411;SDS011;22445;52.100;5.176;2023-04-06T06:38:01;20.60;;;12.70;;
36411;SDS011;22445;52.100;5.176;2023-04-06T06:40:27;17.70;;;12.00;;
36411;SDS011;22445;52.100;5.176;2023-04-06T06:42:52;18.95;;;12.38;;
36411;SDS011;22445;52.100;5.176;2023-04-06T06:45:18;21.45;;;12.52;;
36411;SDS011;22445;52.100;5.176;2023-04-06T06:47:45;19.65;;;12.30;;
36411;SDS011;22445;52.100;5.176;2023-04-06T06:50:11;29.67;;;14.02;;
36411;SDS011;22445;52.100;5.176;2023-04-06T06:52:36;20.50;;;13.93;;
36411;SDS011;22445;52.100;5.176;2023-04-06T06:55:02;19.10;;;12.35;;
36411;SDS011;22445;52.100;5.176;2023-04-06T06:57:27;20.48;;;13.45;;
36411;SDS011;22445;52.100;5.176;2023-04-06T06:59:53;22.13;;;12.95;;
36411;SDS011;22445;52.100;5.176;2023-04-06T07:02:19;28.20;;;14.15;;
36411;SDS011;22445;52.100;5.176;2023-04-06T07:04:47;19.88;;;13.48;;
36411;SDS011;22445;52.100;5.176;2023-04-06T07:07:13;18.30;;;13.00;;
36411;SDS011;22445;52.100;5.176;2023-04-06T07:09:39;23.05;;;14.18;;
36411;SDS011;22445;52.100;5.176;2023-04-06T07:12:04;19.98;;;12.85;;
36411;SDS011;22445;52.100;5.176;2023-04-06T07:14:30;19.52;;;12.13;;
36411;SDS011;22445;52.100;5.176;2023-04-06T07:16:56;18.83;;;13.45;;
36411;SDS011;22445;52.100;5.176;2023-04-06T07:19:21;25.48;;;13.95;;
36411;SDS011;22445;52.100;5.176;2023-04-06T07:21:47;21.08;;;12.98;;
36411;SDS011;22445;52.100;5.176;2023-04-06T07:24:14;22.50;;;13.30;;
36411;SDS011;22445;52.100;5.176;2023-04-06T07:26:39;19.27;;;14.30;;
36411;SDS011;22445;52.100;5.176;2023-04-06T07:29:05;23.42;;;13.90;;
36411;SDS011;22445;52.100;5.176;2023-04-06T07:31:30;19.48;;;13.73;;
36411;SDS011;22445;52.100;5.176;2023-04-06T07:33:56;21.05;;;14.23;;
36411;SDS011;22445;52.100;5.176;2023-04-06T07:36:22;19.73;;;12.77;;
36411;SDS011;22445;52.100;5.176;2023-04-06T07:38:47;24.58;;;14.05;;
36411;SDS011;22445;52.100;5.176;2023-04-06T07:41:14;20.17;;;13.50;;
36411;SDS011;22445;52.100;5.176;2023-04-06T07:43:39;18.13;;;13.43;;
36411;SDS011;22445;52.100;5.176;2023-04-06T07:46:05;19.20;;;14.45;;
36411;SDS011;22445;52.100;5.176;2023-04-06T07:48:31;19.85;;;14.70;;
36411;SDS011;22445;52.100;5.176;2023-04-06T07:51:03;19.17;;;14.25;;
36411;SDS011;22445;52.100;5.176;2023-04-06T07:53:30;20.67;;;13.55;;
36411;SDS011;22445;52.100;5.176;2023-04-06T07:55:56;20.38;;;14.30;;
36411;SDS011;22445;52.100;5.176;2023-04-06T07:58:23;22.17;;;13.60;;
36411;SDS011;22445;52.100;5.176;2023-04-06T08:00:48;20.63;;;14.50;;
36411;SDS011;22445;52.100;5.176;2023-04-06T08:03:14;20.95;;;13.50;;
36411;SDS011;22445;52.100;5.176;2023-04-06T08:05:41;19.05;;;13.70;;
36411;SDS011;22445;52.100;5.176;2023-04-06T08:08:07;23.42;;;14.88;;
36411;SDS011;22445;52.100;5.176;2023-04-06T08:10:33;20.58;;;13.15;;
36411;SDS011;22445;52.100;5.176;2023-04-06T08:12:59;20.48;;;13.80;;
36411;SDS011;22445;52.100;5.176;2023-04-06T08:15:25;19.33;;;12.68;;
36411;SDS011;22445;52.100;5.176;2023-04-06T08:17:51;18.50;;;14.45;;
36411;SDS011;22445;52.100;5.176;2023-04-06T08:20:16;19.13;;;12.88;;
36411;SDS011;22445;52.100;5.176;2023-04-06T08:22:42;19.52;;;13.50;;
36411;SDS011;22445;52.100;5.176;2023-04-06T08:25:08;21.95;;;14.88;;
36411;SDS011;22445;52.100;5.176;2023-04-06T08:27:33;19.20;;;13.27;;
36411;SDS011;22445;52.100;5.176;2023-04-06T08:29:59;22.67;;;14.10;;
36411;SDS011;22445;52.100;5.176;2023-04-06T08:32:24;23.73;;;15.00;;
36411;SDS011;22445;52.100;5.176;2023-04-06T08:34:52;22.83;;;14.38;;
36411;SDS011;22445;52.100;5.176;2023-04-06T08:37:19;20.52;;;14.68;;
36411;SDS011;22445;52.100;5.176;2023-04-06T08:39:45;21.10;;;13.63;;
36411;SDS011;22445;52.100;5.176;2023-04-06T08:42:19;24.83;;;15.32;;
36411;SDS011;22445;52.100;5.176;2023-04-06T08:44:46;22.90;;;14.88;;
36411;SDS011;22445;52.100;5.176;2023-04-06T08:47:13;21.48;;;14.70;;
36411;SDS011;22445;52.100;5.176;2023-04-06T08:49:39;26.65;;;15.27;;
36411;SDS011;22445;52.100;5.176;2023-04-06T08:52:06;21.85;;;15.27;;
36411;SDS011;22445;52.100;5.176;2023-04-06T08:54:33;20.77;;;15.18;;
36411;SDS011;22445;52.100;5.176;2023-04-06T08:56:59;22.95;;;14.75;;
36411;SDS011;22445;52.100;5.176;2023-04-06T08:59:25;22.55;;;13.77;;
36411;SDS011;22445;52.100;5.176;2023-04-06T09:01:50;24.20;;;15.18;;
36411;SDS011;22445;52.100;5.176;2023-04-06T09:04:16;22.27;;;14.27;;
36411;SDS011;22445;52.100;5.176;2023-04-06T09:06:42;23.52;;;15.98;;
36411;SDS011;22445;52.100;5.176;2023-04-06T09:09:08;23.63;;;14.70;;
36411;SDS011;22445;52.100;5.176;2023-04-06T09:11:52;24.65;;;15.07;;
36411;SDS011;22445;52.100;5.176;2023-04-06T09:14:33;21.08;;;13.65;;
36411;SDS011;22445;52.100;5.176;2023-04-06T09:17:00;21.45;;;14.80;;
36411;SDS011;22445;52.100;5.176;2023-04-06T09:19:26;23.67;;;14.65;;
36411;SDS011;22445;52.100;5.176;2023-04-06T09:22:01;22.70;;;14.57;;
36411;SDS011;22445;52.100;5.176;2023-04-06T09:24:39;25.13;;;16.40;;
36411;SDS011;22445;52.100;5.176;2023-04-06T09:27:08;23.90;;;15.93;;
36411;SDS011;22445;52.100;5.176;2023-04-06T09:29:34;27.55;;;17.13;;
36411;SDS011;22445;52.100;5.176;2023-04-06T09:32:11;25.73;;;16.63;;
36411;SDS011;22445;52.100;5.176;2023-04-06T09:34:37;24.15;;;16.98;;
36411;SDS011;22445;52.100;5.176;2023-04-06T09:37:17;28.90;;;16.90;;
36411;SDS011;22445;52.100;5.176;2023-04-06T09:39:44;28.55;;;18.02;;
36411;SDS011;22445;52.100;5.176;2023-04-06T09:42:11;25.88;;;17.40;;
36411;SDS011;22445;52.100;5.176;2023-04-06T09:44:47;26.23;;;16.67;;
36411;SDS011;22445;52.100;5.176;2023-04-06T09:47:13;28.25;;;16.95;;
36411;SDS011;22445;52.100;5.176;2023-04-06T09:49:39;27.45;;;18.48;;
36411;SDS011;22445;52.100;5.176;2023-04-06T09:52:05;29.42;;;18.33;;
36411;SDS011;22445;52.100;5.176;2023-04-06T09:54:32;29.67;;;18.25;;
36411;SDS011;22445;52.100;5.176;2023-04-06T09:59:50;28.80;;;16.83;;
36411;SDS011;22445;52.100;5.176;2023-04-06T10:02:27;28.23;;;18.15;;
36411;SDS011;22445;52.100;5.176;2023-04-06T10:05:19;22.17;;;14.95;;
36411;SDS011;22445;52.100;5.176;2023-04-06T10:07:50;23.48;;;15.10;;
36411;SDS011;22445;52.100;5.176;2023-04-06T10:10:19;23.50;;;15.65;;
36411;SDS011;22445;52.100;5.176;2023-04-06T10:12:45;25.13;;;13.70;;
36411;SDS011;22445;52.100;5.176;2023-04-06T10:15:12;20.27;;;12.73;;
36411;SDS011;22445;52.100;5.176;2023-04-06T10:17:38;17.75;;;10.73;;
36411;SDS011;22445;52.100;5.176;2023-04-06T10:20:09;16.58;;;10.77;;
36411;SDS011;22445;52.100;5.176;2023-04-06T10:23:06;15.05;;;9.75;;
36411;SDS011;22445;52.100;5.176;2023-04-06T10:25:34;13.50;;;9.57;;
36411;SDS011;22445;52.100;5.176;2023-04-06T10:28:09;14.93;;;10.70;;
36411;SDS011;22445;52.100;5.176;2023-04-06T10:30:41;14.02;;;9.68;;
36411;SDS011;22445;52.100;5.176;2023-04-06T10:36:15;12.30;;;7.90;;
36411;SDS011;22445;52.100;5.176;2023-04-06T10:39:07;10.15;;;6.05;;
36411;SDS011;22445;52.100;5.176;2023-04-06T10:41:45;10.52;;;6.97;;
36411;SDS011;22445;52.100;5.176;2023-04-06T10:44:24;12.18;;;7.10;;
36411;SDS011;22445;52.100;5.176;2023-04-06T10:46:54;9.30;;;6.35;;
36411;SDS011;22445;52.100;5.176;2023-04-06T10:49:25;9.75;;;6.68;;
36411;SDS011;22445;52.100;5.176;2023-04-06T10:51:55;9.82;;;5.85;;
36411;SDS011;22445;52.100;5.176;2023-04-06T10:54:21;8.30;;;5.95;;
36411;SDS011;22445;52.100;5.176;2023-04-06T10:56:49;10.82;;;6.47;;
36411;SDS011;22445;52.100;5.176;2023-04-06T10:59:18;8.25;;;6.43;;
36411;SDS011;22445;52.100;5.176;2023-04-06T11:01:45;11.95;;;5.93;;
36411;SDS011;22445;52.100;5.176;2023-04-06T11:04:15;12.13;;;5.80;;
36411;SDS011;22445;52.100;5.176;2023-04-06T11:06:41;7.78;;;5.43;;
36411;SDS011;22445;52.100;5.176;2023-04-06T11:09:07;11.85;;;6.50;;
36411;SDS011;22445;52.100;5.176;2023-04-06T11:11:33;7.93;;;6.35;;
36411;SDS011;22445;52.100;5.176;2023-04-06T11:14:04;12.73;;;6.30;;
36411;SDS011;22445;52.100;5.176;2023-04-06T11:16:31;8.60;;;5.95;;
36411;SDS011;22445;52.100;5.176;2023-04-06T11:18:58;10.23;;;5.68;;
36411;SDS011;22445;52.100;5.176;2023-04-06T11:21:37;8.63;;;6.55;;
36411;SDS011;22445;52.100;5.176;2023-04-06T11:24:05;9.63;;;6.80;;
36411;SDS011;22445;52.100;5.176;2023-04-06T11:26:36;10.13;;;6.15;;
36411;SDS011;22445;52.100;5.176;2023-04-06T11:29:02;11.23;;;7.72;;
36411;SDS011;22445;52.100;5.176;2023-04-06T11:31:28;14.80;;;8.73;;
36411;SDS011;22445;52.100;5.176;2023-04-06T11:33:56;8.60;;;6.50;;
36411;SDS011;22445;52.100;5.176;2023-04-06T11:36:22;9.35;;;5.80;;
36411;SDS011;22445;52.100;5.176;2023-04-06T11:38:48;11.95;;;6.93;;
36411;SDS011;22445;52.100;5.176;2023-04-06T11:41:13;13.45;;;7.78;;
36411;SDS011;22445;52.100;5.176;2023-04-06T11:43:45;9.98;;;6.18;;
36411;SDS011;22445;52.100;5.176;2023-04-06T11:46:16;10.13;;;6.93;;
36411;SDS011;22445;52.100;5.176;2023-04-06T11:48:46;11.75;;;6.47;;
36411;SDS011;22445;52.100;5.176;2023-04-06T11:51:11;8.88;;;6.65;;
36411;SDS011;22445;52.100;5.176;2023-04-06T11:53:46;12.43;;;7.70;;
36411;SDS011;22445;52.100;5.176;2023-04-06T11:56:22;8.07;;;5.97;;
36411;SDS011;22445;52.100;5.176;2023-04-06T11:58:52;9.82;;;7.13;;
36411;SDS011;22445;52.100;5.176;2023-04-06T12:01:19;12.27;;;7.07;;
36411;SDS011;22445;52.100;5.176;2023-04-06T12:03:45;11.45;;;7.35;;
36411;SDS011;22445;52.100;5.176;2023-04-06T12:06:10;10.65;;;7.40;;
36411;SDS011;22445;52.100;5.176;2023-04-06T12:08:36;12.50;;;8.02;;
36411;SDS011;22445;52.100;5.176;2023-04-06T12:11:01;12.02;;;8.57;;
36411;SDS011;22445;52.100;5.176;2023-04-06T12:13:27;14.50;;;8.85;;
36411;SDS011;22445;52.100;5.176;2023-04-06T12:15:53;13.30;;;8.82;;
36411;SDS011;22445;52.100;5.176;2023-04-06T12:18:18;15.55;;;9.00;;
36411;SDS011;22445;52.100;5.176;2023-04-06T12:20:44;11.73;;;8.00;;
36411;SDS011;22445;52.100;5.176;2023-04-06T12:23:10;14.75;;;9.32;;
36411;SDS011;22445;52.100;5.176;2023-04-06T12:25:35;13.45;;;8.98;;
36411;SDS011;22445;52.100;5.176;2023-04-06T12:28:01;12.63;;;8.55;;
36411;SDS011;22445;52.100;5.176;2023-04-06T12:30:26;13.82;;;9.32;;
36411;SDS011;22445;52.100;5.176;2023-04-06T12:32:52;15.07;;;10.20;;
36411;SDS011;22445;52.100;5.176;2023-04-06T12:35:17;18.42;;;11.25;;
36411;SDS011;22445;52.100;5.176;2023-04-06T12:37:43;16.27;;;9.90;;
36411;SDS011;22445;52.100;5.176;2023-04-06T12:40:09;15.82;;;10.52;;
36411;SDS011;22445;52.100;5.176;2023-04-06T12:42:38;13.35;;;10.18;;
36411;SDS011;22445;52.100;5.176;2023-04-06T12:45:04;16.25;;;10.55;;
36411;SDS011;22445;52.100;5.176;2023-04-06T12:47:30;17.05;;;10.88;;
36411;SDS011;22445;52.100;5.176;2023-04-06T12:49:55;15.93;;;10.15;;
36411;SDS011;22445;52.100;5.176;2023-04-06T12:52:21;15.95;;;11.05;;
36411;SDS011;22445;52.100;5.176;2023-04-06T12:54:47;16.48;;;11.65;;
36411;SDS011;22445;52.100;5.176;2023-04-06T12:57:12;18.58;;;12.13;;
36411;SDS011;22445;52.100;5.176;2023-04-06T12:59:38;18.35;;;11.75;;
36411;SDS011;22445;52.100;5.176;2023-04-06T13:02:04;14.43;;;10.88;;
36411;SDS011;22445;52.100;5.176;2023-04-06T13:04:30;16.40;;;11.23;;
36411;SDS011;22445;52.100;5.176;2023-04-06T13:06:56;17.17;;;11.85;;
36411;SDS011;22445;52.100;5.176;2023-04-06T13:09:21;18.98;;;12.50;;
36411;SDS011;22445;52.100;5.176;2023-04-06T13:11:47;20.33;;;13.27;;
36411;SDS011;22445;52.100;5.176;2023-04-06T13:14:12;18.55;;;12.52;;
36411;SDS011;22445;52.100;5.176;2023-04-06T13:16:38;21.77;;;12.82;;
36411;SDS011;22445;52.100;5.176;2023-04-06T13:19:03;17.60;;;12.52;;
36411;SDS011;22445;52.100;5.176;2023-04-06T13:21:29;20.75;;;12.45;;
36411;SDS011;22445;52.100;5.176;2023-04-06T13:23:55;16.15;;;12.25;;
36411;SDS011;22445;52.100;5.176;2023-04-06T13:26:21;15.98;;;10.95;;
36411;SDS011;22445;52.100;5.176;2023-04-06T13:28:46;19.00;;;12.90;;
36411;SDS011;22445;52.100;5.176;2023-04-06T13:31:12;14.63;;;11.27;;
36411;SDS011;22445;52.100;5.176;2023-04-06T13:33:38;14.80;;;11.43;;
36411;SDS011;22445;52.100;5.176;2023-04-06T13:36:05;14.63;;;11.20;;
36411;SDS011;22445;52.100;5.176;2023-04-06T13:38:31;14.02;;;10.13;;
36411;SDS011;22445;52.100;5.176;2023-04-06T13:41:00;18.67;;;12.98;;
36411;SDS011;22445;52.100;5.176;2023-04-06T13:43:26;15.75;;;11.45;;
36411;SDS011;22445;52.100;5.176;2023-04-06T13:45:52;15.38;;;11.85;;
36411;SDS011;22445;52.100;5.176;2023-04-06T13:48:20;19.42;;;13.40;;
36411;SDS011;22445;52.100;5.176;2023-04-06T13:50:46;20.25;;;13.07;;
36411;SDS011;22445;52.100;5.176;2023-04-06T13:53:12;22.10;;;13.93;;
36411;SDS011;22445;52.100;5.176;2023-04-06T13:55:38;20.85;;;13.25;;
36411;SDS011;22445;52.100;5.176;2023-04-06T13:58:03;19.60;;;13.65;;
36411;SDS011;22445;52.100;5.176;2023-04-06T14:00:29;19.63;;;13.68;;
36411;SDS011;22445;52.100;5.176;2023-04-06T14:02:54;18.92;;;13.65;;
36411;SDS011;22445;52.100;5.176;2023-04-06T14:05:20;17.45;;;12.43;;
36411;SDS011;22445;52.100;5.176;2023-04-06T14:07:47;19.73;;;13.15;;
36411;SDS011;22445;52.100;5.176;2023-04-06T14:10:12;17.65;;;12.13;;
36411;SDS011;22445;52.100;5.176;2023-04-06T14:12:41;17.02;;;12.13;;
36411;SDS011;22445;52.100;5.176;2023-04-06T14:15:09;18.98;;;13.93;;
36411;SDS011;22445;52.100;5.176;2023-04-06T14:17:36;18.75;;;13.07;;
36411;SDS011;22445;52.100;5.176;2023-04-06T14:20:01;20.67;;;13.55;;
36411;SDS011;22445;52.100;5.176;2023-04-06T14:22:27;19.30;;;14.25;;
36411;SDS011;22445;52.100;5.176;2023-04-06T14:24:53;20.67;;;13.18;;
36411;SDS011;22445;52.100;5.176;2023-04-06T14:27:18;19.23;;;12.52;;
36411;SDS011;22445;52.100;5.176;2023-04-06T14:29:44;20.17;;;13.27;;
36411;SDS011;22445;52.100;5.176;2023-04-06T14:32:09;20.30;;;12.93;;